Main page
METAR-TAF:

METAR-TAF

Airports :

Heathrow Airport

London-Heathrow, England

latitude: 51-29N, longitude: 000-27W, elevation: 24 m

Current weather observation

The report was made 22 minutes ago, at 04:50 UTC
Wind 3 kt from the South/Southeast, varying between East/Southeast and West/Southwest
Temperature 14°C
Humidity 94%
Pressure 1021 hPa
Visibility 10 km or more

METAR: EGLL 180450Z AUTO 15003KT 110V250 9999 NCD 14/13 Q1021 NOSIG

Time: 06:12 (05:12 UTC)

Forecast

The report was made 6 hours and 19 minutes ago, at 22:53 UTC
Forecast valid from 18 at 00 UTC to 19 at 06 UTC
Wind 6 kt from the South
Visibility 10 km or more
no clouds below 1500 m and no cumulonimbus
Probability 30%
from 18 at 03 UTC to 18 at 06 UTC
Visibility: 8000 m

TAF: EGLL 172253Z 1800/1906 19006KT CAVOK PROB30 1803/1806 8000

Weather observations and forecasts of more than 4000 airports (METAR and TAF reports).

The available stations are represented by yellow and red dots on the map.

Hover mouse over dot to see the name of the station.

Then click to see weather observations and forecasts.

To change the map : click on the green buttons with a black cross to zoom in, on the green button with a dash to zoom out, or on the green arrows for adjacent maps.


METAR-TAF: